Terminal Aerodrome Forecast
Issued by NWS

Home | Current Version | Previous Version | Graphics & Text | Print | Product List | Glossary On
Versions: 1 2 3 4 5 6 7 8 9 10 11 12 13 14 15 16 17
053
FTUS43 KFGF 292321
TAFBJI
TAF
KBJI 292321Z 3000/3024 34006KT P6SM OVC008
      TEMPO 3000/3003 -RA OVC012
     FM300600 35006KT 2SM BR OVC005
     FM301800 36007KT P6SM -DZ OVC005=

USA.gov is the U.S. government's official web portal to all federal, state and local government web resources and services.